Time;durP1;ratioP1;P1;durP2;ratioP2;P2;SDS_P1;SDS_P2;PMS_P1;PMS_P2;Temp;Humidity;BMP_temperature;BMP_pressure;BME280_temperature;BME280_humidity;BME280_pressure;Samples;Min_cycle;Max_cycle;Signal;HPM_P1;HPM_P2
2023/11/06 00:01:29;;;;;;;12.77;4.75;;;12.50;99.90;;;12.75;100.00;99119.25;4824137;29;20546;-64
2023/11/06 00:03:57;;;;;;;14.55;4.63;;;12.50;99.90;;;12.69;100.00;99130.13;4824166;29;20092;-64
2023/11/06 00:06:25;;;;;;;12.93;4.65;;;12.40;99.90;;;12.56;100.00;99129.75;4824717;29;20058;-64
2023/11/06 00:08:54;;;;;;;15.57;4.80;;;12.30;99.90;;;12.53;100.00;99129.00;4824374;29;20085;-64
2023/11/06 00:11:22;;;;;;;11.93;4.38;;;12.30;99.90;;;12.43;100.00;99139.13;4824160;29;20058;-64
2023/11/06 00:13:52;;;;;;;9.48;3.97;;;12.20;99.90;;;12.36;100.00;99131.47;4824091;29;20050;-64
2023/11/06 00:16:20;;;;;;;9.13;4.38;;;12.10;99.90;;;12.28;100.00;99133.56;4824064;29;20054;-64
2023/11/06 00:18:56;;;;;;;10.45;4.20;;;12.10;99.90;;;12.35;100.00;99141.19;4824105;29;20531;-64
2023/11/06 00:21:24;;;;;;;12.10;4.18;;;12.10;99.90;;;12.29;100.00;99153.84;4824184;29;20054;-64
2023/11/06 00:23:56;;;;;;;7.68;3.97;;;12.10;99.90;;;12.21;100.00;99158.59;4824218;29;20497;-64
2023/11/06 00:26:24;;;;;;;13.75;3.95;;;12.00;99.90;;;12.31;100.00;99154.66;4823927;29;20077;-64
2023/11/06 00:28:56;;;;;;;10.43;4.30;;;12.00;99.90;;;12.27;100.00;99163.66;4824048;29;20066;-64
2023/11/06 00:31:25;;;;;;;12.70;4.05;;;12.00;99.90;;;12.31;100.00;99170.56;4824187;29;20549;-64
2023/11/06 00:33:53;;;;;;;10.85;4.10;;;12.00;99.90;;;12.32;100.00;99167.84;4822843;29;20103;-64
2023/11/06 00:36:24;;;;;;;10.40;4.50;;;12.10;99.90;;;12.20;100.00;99168.31;4824085;29;20058;-64
2023/11/06 00:38:53;;;;;;;11.65;3.95;;;12.00;99.90;;;12.13;100.00;99166.84;4824345;29;20102;-64
2023/11/06 00:41:21;;;;;;;15.38;4.60;;;11.90;99.90;;;12.22;100.00;99166.47;4823746;29;20042;-64
2023/11/06 00:43:52;;;;;;;16.75;3.85;;;12.00;99.90;;;12.19;100.00;99174.56;4823927;29;20054;-64
2023/11/06 00:46:22;;;;;;;10.52;4.00;;;11.90;99.90;;;12.21;100.00;99183.31;4823818;29;20068;-64
2023/11/06 00:48:50;;;;;;;8.73;4.00;;;12.00;99.90;;;12.17;100.00;99187.00;4822694;29;20447;-64
2023/11/06 00:51:18;;;;;;;7.07;4.15;;;11.90;99.90;;;12.06;100.00;99175.06;4822663;29;20058;-63
2023/11/06 00:53:47;;;;;;;12.27;4.40;;;11.90;99.90;;;12.14;100.00;99187.09;4823652;29;20053;-63
2023/11/06 00:56:15;;;;;;;12.80;4.22;;;11.90;99.90;;;12.20;100.00;99164.78;4824132;29;20054;-63
2023/11/06 00:58:47;;;;;;;7.90;4.10;;;12.00;99.90;;;12.18;100.00;99183.41;4823642;29;20061;-63
2023/11/06 01:01:15;;;;;;;10.73;4.53;;;11.90;99.90;;;12.14;100.00;99184.44;4823817;29;20043;-63
2023/11/06 01:03:46;;;;;;;8.90;4.00;;;11.90;99.90;;;12.18;100.00;99193.13;4823487;29;20050;-63
2023/11/06 01:06:14;;;;;;;10.15;4.50;;;11.90;99.90;;;12.04;100.00;99196.31;4822835;29;20119;-63
2023/11/06 01:08:43;;;;;;;11.50;4.30;;;11.90;99.90;;;11.97;100.00;99191.28;4822486;29;20179;-63
2023/11/06 01:11:11;;;;;;;12.40;4.57;;;11.70;99.90;;;12.00;100.00;99188.53;4823476;29;20065;-63
2023/11/06 01:13:39;;;;;;;12.00;4.38;;;11.70;99.90;;;12.05;100.00;99190.09;4826729;29;20458;-63
2023/11/06 01:16:09;;;;;;;14.82;4.53;;;11.80;99.90;;;12.04;100.00;99203.41;4827007;29;20053;-63
2023/11/06 01:18:37;;;;;;;11.43;4.40;;;11.70;99.90;;;12.02;100.00;99210.56;4827149;29;20409;-63
2023/11/06 01:21:07;;;;;;;13.93;4.72;;;11.80;99.90;;;12.11;100.00;99223.44;4826921;29;20474;-64
2023/11/06 01:23:36;;;;;;;11.90;4.75;;;11.80;99.90;;;12.15;100.00;99223.28;4825655;29;20054;-63
2023/11/06 01:26:04;;;;;;;11.90;4.43;;;11.90;99.90;;;12.23;100.00;99231.78;4826579;29;20099;-63
2023/11/06 01:28:33;;;;;;;13.00;4.50;;;11.90;99.90;;;12.22;100.00;99238.03;4826568;29;20074;-64
2023/11/06 01:31:02;;;;;;;12.77;4.28;;;12.00;99.90;;;12.19;100.00;99250.53;4825746;29;20050;-63
2023/11/06 01:33:31;;;;;;;9.13;4.38;;;11.90;99.90;;;12.18;100.00;99264.69;4826467;29;20058;-63
2023/11/06 01:36:00;;;;;;;14.18;4.85;;;11.90;99.90;;;12.16;100.00;99255.94;4826775;29;20119;-63
2023/11/06 01:38:30;;;;;;;9.27;4.25;;;11.90;99.90;;;12.21;100.00;99254.88;4825356;29;20085;-63
2023/11/06 01:40:59;;;;;;;;;;;12.00;99.90;;;12.25;100.00;99268.88;4827028;29;20059;-63
2023/11/06 01:43:28;;;;;;;10.30;4.10;;;12.00;99.90;;;12.20;100.00;99262.84;4826546;29;19968;-64
2023/11/06 01:45:56;;;;;;;13.40;4.80;;;12.00;99.90;;;12.21;100.00;99269.91;4826496;29;20063;-63
2023/11/06 01:48:28;;;;;;;11.85;4.32;;;12.00;99.90;;;12.32;100.00;99267.72;4826797;29;20103;-63
2023/11/06 01:50:57;;;;;;;10.77;4.45;;;12.10;99.90;;;12.31;100.00;99260.69;4826446;29;20063;-63
2023/11/06 01:53:30;;;;;;;12.48;4.95;;;12.10;99.90;;;12.41;100.00;99270.88;4826637;29;20050;-63
2023/11/06 01:56:00;;;;;;;12.77;4.97;;;12.10;99.90;;;12.29;100.00;99251.94;4825186;29;20101;-63
2023/11/06 01:58:29;;;;;;;12.10;4.33;;;12.20;99.90;;;12.26;100.00;99270.59;4825097;29;20056;-63
2023/11/06 02:00:58;;;;;;;13.98;4.80;;;12.10;99.90;;;12.19;100.00;99274.41;4825018;29;20369;-63
2023/11/06 02:03:27;;;;;;;11.50;4.65;;;12.00;99.90;;;12.06;100.00;99281.91;4825016;29;20050;-63
2023/11/06 02:05:56;;;;;;;16.98;5.10;;;11.90;99.90;;;12.06;100.00;99278.41;4826092;29;20475;-63
2023/11/06 02:08:24;;;;;;;15.10;4.72;;;11.80;99.90;;;12.03;100.00;99273.22;4826279;29;20449;-62
2023/11/06 02:10:54;;;;;;;13.68;4.55;;;11.80;99.90;;;12.04;100.00;99273.16;4826130;29;20089;-63
2023/11/06 02:13:22;;;;;;;14.60;5.20;;;11.80;99.90;;;11.92;100.00;99273.63;4825878;29;20145;-63
2023/11/06 02:15:51;;;;;;;15.10;5.82;;;11.70;99.90;;;11.87;100.00;99272.88;4824821;29;20118;-63
2023/11/06 02:18:21;;;;;;;16.63;4.65;;;11.70;99.90;;;11.81;100.00;99277.56;4825706;29;20519;-63
2023/11/06 02:20:54;;;;;;;12.88;4.50;;;11.60;99.90;;;11.78;100.00;99278.53;4824512;29;20054;-63
2023/11/06 02:23:25;;;;;;;12.50;4.18;;;11.50;99.90;;;11.78;100.00;99291.75;4826005;29;20057;-63
2023/11/06 02:25:53;;;;;;;12.90;4.70;;;11.50;99.90;;;11.78;100.00;99282.03;4825888;29;20046;-62
2023/11/06 02:28:22;;;;;;;11.85;4.50;;;11.50;99.90;;;11.73;100.00;99293.69;4824453;29;20057;-64
2023/11/06 02:30:52;;;;;;;13.00;5.18;;;11.50;99.90;;;11.77;100.00;99298.84;4824590;29;20047;-63
2023/11/06 02:33:21;;;;;;;13.57;5.00;;;11.50;99.90;;;11.79;100.00;99296.13;4825835;29;20050;-63
2023/11/06 02:35:49;;;;;;;11.95;4.78;;;11.50;99.90;;;11.76;100.00;99294.47;4825723;29;20424;-63
2023/11/06 02:38:18;;;;;;;15.20;5.30;;;11.50;99.90;;;11.69;100.00;99302.69;4825698;29;20054;-63
2023/11/06 02:40:48;;;;;;;13.43;4.63;;;11.50;99.90;;;11.73;100.00;99312.22;4825671;29;20054;-64
2023/11/06 02:43:16;;;;;;;14.97;5.13;;;11.40;99.90;;;11.73;100.00;99318.41;4825755;29;20469;-63
2023/11/06 02:45:45;;;;;;;11.18;4.70;;;11.40;99.90;;;11.70;100.00;99315.00;4825508;29;20046;-63
2023/11/06 02:48:13;;;;;;;14.77;4.65;;;11.50;99.90;;;11.71;100.00;99330.81;4825523;29;20414;-63
2023/11/06 02:50:42;;;;;;;14.55;4.80;;;11.50;99.90;;;11.65;100.00;99323.06;4825520;29;20042;-63
2023/11/06 02:53:10;;;;;;;11.25;4.82;;;11.50;99.90;;;11.76;100.00;99326.25;4824240;29;20058;-63
2023/11/06 02:55:38;;;;;;;13.55;4.97;;;11.50;99.90;;;11.74;100.00;99330.75;4825698;29;20408;-64
2023/11/06 02:58:08;;;;;;;13.50;5.20;;;11.50;99.90;;;11.76;100.00;99336.84;4825175;29;20382;-63
2023/11/06 03:00:37;;;;;;;12.30;4.70;;;11.50;99.90;;;11.71;100.00;99336.13;4825393;29;20123;-63
2023/11/06 03:03:05;;;;;;;12.18;5.25;;;11.50;99.90;;;11.71;100.00;99335.28;4825105;29;20077;-63
2023/11/06 03:05:35;;;;;;;13.50;4.88;;;11.50;99.90;;;11.67;100.00;99334.50;4825205;29;20108;-63
2023/11/06 03:08:04;;;;;;;16.98;4.45;;;11.50;99.90;;;11.64;100.00;99342.53;4824044;29;20061;-63
2023/11/06 03:10:33;;;;;;;16.73;5.18;;;11.40;99.90;;;11.63;100.00;99355.81;4825359;29;20463;-63
2023/11/06 03:13:01;;;;;;;18.80;5.40;;;11.40;99.90;;;11.66;100.00;99346.00;4823941;29;20054;-63
2023/11/06 03:15:31;;;;;;;14.00;4.22;;;11.40;99.90;;;11.63;100.00;99351.34;4825259;29;20078;-63
2023/11/06 03:17:59;;;;;;;16.00;5.53;;;11.40;99.90;;;11.59;100.00;99347.06;4825490;29;20051;-63
2023/11/06 03:20:28;;;;;;;19.20;4.63;;;11.40;99.90;;;11.55;100.00;99352.53;4823890;29;20050;-63
2023/11/06 03:22:56;;;;;;;13.57;4.85;;;11.40;99.90;;;11.54;100.00;99345.50;4823845;29;20058;-63
2023/11/06 03:25:25;;;;;;;16.35;5.07;;;11.30;99.90;;;11.52;100.00;99366.75;4823891;29;20054;-63
2023/11/06 03:27:53;;;;;;;10.38;4.70;;;11.30;99.90;;;11.58;100.00;99348.00;4824752;29;20497;-63
2023/11/06 03:30:22;;;;;;;16.65;4.88;;;11.40;99.90;;;11.59;100.00;99348.88;4824754;29;20067;-63
2023/11/06 03:32:52;;;;;;;16.95;4.75;;;11.40;99.90;;;11.62;100.00;99357.59;4825133;29;20050;-63
2023/11/06 03:35:20;;;;;;;13.37;4.57;;;11.40;99.90;;;11.67;100.00;99349.53;4824596;29;20137;-63
2023/11/06 03:37:49;;;;;;;15.65;4.97;;;11.40;99.90;;;11.63;100.00;99355.81;4824849;29;20348;-62
2023/11/06 03:40:18;;;;;;;12.00;4.20;;;11.40;99.90;;;11.55;100.00;99364.00;4824578;29;20141;-63
2023/11/06 03:42:46;;;;;;;11.38;4.35;;;11.30;99.90;;;11.57;100.00;99362.19;4824517;29;20054;-62
2023/11/06 03:45:14;;;;;;;14.70;4.60;;;11.40;99.90;;;11.54;100.00;99369.34;4824653;29;20055;-63
2023/11/06 03:47:43;;;;;;;13.60;4.28;;;11.40;99.90;;;11.53;100.00;99368.50;4824882;29;20058;-63
2023/11/06 03:50:14;;;;;;;12.80;4.20;;;11.30;99.90;;;11.59;100.00;99359.47;4824407;29;20046;-62
2023/11/06 03:52:42;;;;;;;;;;;11.40;99.90;;;11.53;100.00;99364.97;4825098;29;20416;-62
2023/11/06 03:55:12;;;;;;;12.65;4.45;;;11.30;99.90;;;11.51;100.00;99365.03;4823378;29;20085;-62
2023/11/06 03:57:41;;;;;;;13.05;4.28;;;11.30;99.90;;;11.50;100.00;99365.06;4823406;29;20152;-62
2023/11/06 04:00:11;;;;;;;9.85;4.20;;;11.30;99.90;;;11.45;100.00;99367.88;4824464;29;20061;-63
2023/11/06 04:02:39;;;;;;;8.45;4.03;;;11.30;99.90;;;11.41;100.00;99368.88;4824290;29;20119;-63
2023/11/06 04:05:08;;;;;;;14.55;3.97;;;11.30;99.90;;;11.37;100.00;99359.28;4824174;29;20493;-62
2023/11/06 04:07:38;;;;;;;9.90;4.20;;;11.20;99.90;;;11.33;100.00;99376.19;4824447;29;20413;-62
2023/11/06 04:10:07;;;;;;;11.88;3.60;;;11.10;99.90;;;11.35;100.00;99381.44;4823194;29;20500;-63
2023/11/06 04:12:36;;;;;;;8.50;3.90;;;11.10;99.90;;;11.35;100.00;99402.59;4824156;29;20103;-62
2023/11/06 04:15:05;;;;;;;9.23;3.35;;;11.10;99.90;;;11.29;100.00;99392.19;4824076;29;20055;-62
2023/11/06 04:17:34;;;;;;;8.87;3.67;;;11.10;99.90;;;11.22;100.00;99362.44;4824096;29;20069;-62
2023/11/06 04:20:03;;;;;;;10.15;3.60;;;11.10;99.90;;;11.10;100.00;99357.50;4824206;29;20348;-62
2023/11/06 04:22:31;;;;;;;11.60;3.88;;;11.00;99.90;;;11.24;100.00;99386.19;4823065;29;20090;-62
2023/11/06 04:25:01;;;;;;;8.82;3.60;;;11.10;99.90;;;11.19;100.00;99388.97;4824104;29;20134;-63
2023/11/06 04:27:30;;;;;;;12.38;3.80;;;11.00;99.90;;;11.16;100.00;99391.72;4824245;29;20484;-63
2023/11/06 04:30:02;;;;;;;8.10;3.90;;;11.00;99.90;;;11.16;100.00;99396.16;4824182;29;20065;-63
2023/11/06 04:32:31;;;;;;;11.15;3.67;;;11.00;99.90;;;11.20;100.00;99417.19;4824299;29;20054;-62
2023/11/06 04:34:59;;;;;;;10.98;3.95;;;11.00;99.90;;;11.24;100.00;99410.88;4823858;29;20050;-62
2023/11/06 04:37:27;;;;;;;11.18;4.07;;;11.00;99.90;;;11.18;100.00;99419.00;4824091;29;20046;-62
2023/11/06 04:39:56;;;;;;;12.57;3.88;;;11.00;99.90;;;11.13;100.00;99407.69;4822833;29;20508;-62
2023/11/06 04:42:26;;;;;;;10.23;4.07;;;10.90;99.90;;;11.18;100.00;99411.06;4823836;29;20053;-63
2023/11/06 04:44:54;;;;;;;10.95;4.15;;;11.00;99.90;;;11.14;100.00;99404.13;4823667;29;20057;-62
2023/11/06 04:47:22;;;;;;;9.20;3.97;;;11.00;99.90;;;11.08;100.00;99396.38;4826263;29;20473;-62
2023/11/06 04:49:51;;;;;;;11.00;3.90;;;10.90;99.90;;;11.11;100.00;99412.16;4827289;29;20062;-62
2023/11/06 04:52:19;;;;;;;12.93;3.67;;;10.90;99.90;;;11.19;100.00;99418.09;4827276;29;20050;-62
2023/11/06 04:54:48;;;;;;;13.85;4.22;;;11.00;99.90;;;11.26;100.00;99418.78;4827409;29;20135;-63
2023/11/06 04:57:16;;;;;;;9.18;3.50;;;11.00;99.90;;;11.22;100.00;99412.72;4827357;29;20057;-62
2023/11/06 04:59:46;;;;;;;8.35;3.28;;;11.00;99.90;;;11.18;100.00;99405.78;4827073;29;20078;-63
2023/11/06 05:02:14;;;;;;;9.40;3.60;;;11.00;99.90;;;11.22;100.00;99401.25;4827261;29;20054;-62
2023/11/06 05:04:44;;;;;;;10.35;4.00;;;11.00;99.90;;;11.25;100.00;99409.97;4827165;29;20783;-62
2023/11/06 05:07:13;;;;;;;8.65;3.42;;;11.00;99.90;;;11.17;100.00;99416.41;4826896;29;20117;-62
2023/11/06 05:09:42;;;;;;;11.68;4.15;;;11.00;99.90;;;10.40;100.00;99287.34;4827175;29;20063;-63
2023/11/06 05:12:11;;;;;;;9.10;3.92;;;11.00;99.90;;;11.17;100.00;99427.84;4825837;29;20050;-63
2023/11/06 05:14:39;;;;;;;8.15;3.83;;;10.90;99.90;;;11.13;100.00;99420.06;4827023;29;20058;-63
2023/11/06 05:17:10;;;;;;;11.00;4.13;;;11.00;99.90;;;11.26;100.00;99443.47;4827301;29;20119;-62
2023/11/06 05:19:41;;;;;;;10.27;3.63;;;11.00;99.90;;;11.18;100.00;99440.19;4827228;29;20054;-63
2023/11/06 05:22:10;;;;;;;14.35;3.90;;;11.00;99.90;;;11.18;100.00;99442.81;4827005;29;20054;-63
2023/11/06 05:24:44;;;;;;;11.07;4.40;;;11.00;99.90;;;11.11;100.00;99438.63;4826676;29;20054;-62
2023/11/06 05:27:13;;;;;;;11.23;4.10;;;11.00;99.90;;;11.13;100.00;99446.53;4825542;29;20058;-62
2023/11/06 05:29:41;;;;;;;13.05;4.55;;;10.90;99.90;;;11.27;100.00;99470.78;4826872;29;20115;-63
2023/11/06 05:32:11;;;;;;;13.52;3.70;;;11.00;99.90;;;11.27;100.00;99439.03;4826725;29;20078;-63
2023/11/06 05:34:40;;;;;;;9.73;4.05;;;11.00;99.90;;;11.18;100.00;99441.94;4825480;29;20455;-63
2023/11/06 05:37:09;;;;;;;9.55;3.90;;;11.00;99.90;;;11.16;100.00;99446.44;4825461;29;20050;-63
2023/11/06 05:39:39;;;;;;;12.25;4.30;;;10.90;99.90;;;11.06;100.00;99440.53;4826589;29;20107;-62
2023/11/06 05:42:08;;;;;;;14.85;4.32;;;10.90;99.90;;;11.13;100.00;99454.47;4826629;29;20043;-63
2023/11/06 05:44:41;;;;;;;11.77;4.15;;;10.90;99.90;;;11.13;100.00;99452.66;4826331;29;20076;-64
2023/11/06 05:47:11;;;;;;;16.98;4.28;;;10.90;99.90;;;11.14;100.00;99465.00;4826588;29;20050;-63
2023/11/06 05:49:42;;;;;;;9.20;4.40;;;10.90;99.90;;;11.18;100.00;99464.00;4825238;29;20078;-64
2023/11/06 05:52:13;;;;;;;;;;;10.90;99.90;;;11.18;100.00;99448.13;4827182;29;20119;-63
2023/11/06 05:54:44;;;;;;;13.52;4.13;;;11.00;99.90;;;11.20;100.00;99448.94;4826146;29;20031;-65
2023/11/06 05:57:12;;;;;;;12.32;3.88;;;11.00;99.90;;;11.14;100.00;99470.28;4826142;29;20054;-63
2023/11/06 05:59:41;;;;;;;13.18;4.07;;;11.00;99.90;;;11.12;100.00;99453.59;4825647;29;20103;-63
2023/11/06 06:02:11;;;;;;;15.38;5.32;;;11.00;99.90;;;11.22;100.00;99470.94;4826825;29;20146;-63
2023/11/06 06:04:39;;;;;;;11.50;4.22;;;11.00;99.90;;;11.22;100.00;99491.22;4826013;29;20053;-64
2023/11/06 06:07:09;;;;;;;13.82;3.95;;;11.00;99.90;;;11.20;100.00;99501.00;4825213;29;20523;-64
2023/11/06 06:09:39;;;;;;;14.30;4.75;;;11.00;99.90;;;11.16;100.00;99481.69;4825994;29;20144;-64
2023/11/06 06:12:11;;;;;;;9.75;4.28;;;11.00;99.90;;;11.16;100.00;99484.34;4826457;29;20086;-64
2023/11/06 06:14:39;;;;;;;12.88;4.20;;;11.00;99.90;;;11.21;100.00;99500.94;4825909;29;20497;-64
2023/11/06 06:17:08;;;;;;;17.30;4.97;;;11.00;99.90;;;11.24;100.00;99495.59;4826301;29;20043;-64
2023/11/06 06:19:37;;;;;;;14.45;4.60;;;11.00;99.90;;;10.51;100.00;99364.56;4826281;29;20405;-64
2023/11/06 06:22:06;;;;;;;11.18;3.95;;;11.00;99.90;;;11.16;100.00;99497.56;4825606;29;20062;-64
2023/11/06 06:24:34;;;;;;;14.02;4.50;;;11.00;99.90;;;11.15;100.00;99479.94;4825641;29;20061;-64
2023/11/06 06:27:02;;;;;;;11.77;4.20;;;11.00;99.90;;;11.27;100.00;99508.72;4825519;29;20103;-63
2023/11/06 06:29:31;;;;;;;13.75;4.18;;;11.00;99.90;;;11.28;100.00;99513.09;4825762;29;20058;-63
2023/11/06 06:31:59;;;;;;;15.73;4.50;;;11.10;99.90;;;11.39;100.00;99507.47;4825500;29;20070;-63
2023/11/06 06:34:28;;;;;;;13.30;4.45;;;11.10;99.90;;;11.35;100.00;99513.78;4825557;29;20053;-61
2023/11/06 06:36:57;;;;;;;9.65;4.20;;;11.10;99.90;;;11.37;100.00;99512.84;4825711;29;20058;-62
2023/11/06 06:39:26;;;;;;;10.02;4.53;;;11.20;99.90;;;11.29;100.00;99491.00;4825659;29;20042;-61
2023/11/06 06:41:54;;;;;;;12.40;4.43;;;11.10;99.90;;;11.34;100.00;99520.84;4825602;29;20054;-65
2023/11/06 06:44:22;;;;;;;10.65;4.30;;;11.10;99.90;;;11.30;100.00;99513.06;4825800;29;20409;-64
2023/11/06 06:46:51;;;;;;;15.77;4.57;;;11.10;99.90;;;11.36;100.00;99516.38;4825263;29;20054;-64
2023/11/06 06:49:20;;;;;;;10.90;4.40;;;11.20;99.90;;;11.30;100.00;99526.28;4825502;29;20047;-64
2023/11/06 06:51:48;;;;;;;10.55;4.22;;;11.10;99.90;;;11.21;100.00;99522.13;4825914;29;20054;-63
2023/11/06 06:54:18;;;;;;;12.85;4.70;;;11.00;99.90;;;11.27;100.00;99516.66;4825221;29;20543;-63
2023/11/06 06:56:47;;;;;;;13.75;4.50;;;11.10;99.90;;;11.23;100.00;99508.84;4825435;29;20062;-64
2023/11/06 06:59:15;;;;;;;11.82;4.75;;;11.00;99.90;;;11.28;100.00;99550.16;4825356;29;20050;-62
2023/11/06 07:01:44;;;;;;;8.10;4.10;;;11.10;99.90;;;11.25;100.00;99539.66;4823960;29;20489;-63
2023/11/06 07:04:12;;;;;;;12.27;4.32;;;11.10;99.90;;;11.30;100.00;99542.16;4825076;29;20062;-63
2023/11/06 07:06:41;;;;;;;14.77;4.63;;;11.10;99.90;;;11.39;100.00;99547.19;4824963;29;20115;-63
2023/11/06 07:09:10;;;;;;;10.07;4.10;;;11.20;99.90;;;11.53;100.00;99530.00;4824822;29;20081;-63
2023/11/06 07:11:40;;;;;;;9.73;4.00;;;11.30;99.90;;;11.53;100.00;99523.84;4824368;29;20053;-64
2023/11/06 07:14:08;;;;;;;7.93;3.55;;;11.40;99.90;;;11.75;100.00;99556.72;4823692;29;20055;-63
2023/11/06 07:16:37;;;;;;;15.65;4.25;;;11.50;99.90;;;11.85;99.59;99546.72;4824746;29;20054;-63
2023/11/06 07:19:06;;;;;;;10.50;3.90;;;11.60;99.90;;;11.92;98.37;99558.88;4825008;29;20556;-63
2023/11/06 07:21:35;;;;;;;9.48;3.85;;;11.70;99.90;;;12.04;97.49;99563.81;4824995;29;20054;-63
2023/11/06 07:24:04;;;;;;;10.75;4.40;;;11.80;99.90;;;12.24;96.61;99540.16;4825343;29;20122;-64
2023/11/06 07:26:33;;;;;;;10.33;3.83;;;12.00;99.90;;;12.13;95.74;99544.94;4824914;29;20058;-63
2023/11/06 07:29:03;;;;;;;9.20;3.90;;;12.00;99.90;;;12.26;94.59;99562.19;4824765;29;20629;-62
2023/11/06 07:31:38;;;;;;;8.27;3.70;;;12.10;99.90;;;12.51;93.97;99557.81;5109586;27;1253575;-62
2023/11/06 07:34:06;;;;;;;8.98;3.90;;;12.20;99.90;;;12.52;93.43;99565.72;5130847;28;20035;-62
2023/11/06 07:36:35;;;;;;;6.63;3.53;;;12.30;99.90;;;12.62;92.78;99564.50;5112751;28;20412;-63
2023/11/06 07:39:03;;;;;;;9.32;3.92;;;12.40;99.90;;;12.38;91.99;99590.97;5131197;28;20067;-62
2023/11/06 07:41:32;;;;;;;7.00;3.20;;;12.30;99.90;;;12.28;92.55;99563.00;5130779;28;20094;-62
2023/11/06 07:44:00;;;;;;;14.40;4.15;;;12.10;99.90;;;12.22;93.49;99587.06;5130746;28;20044;-63
2023/11/06 07:46:31;;;;;;;9.52;3.47;;;12.00;99.90;;;12.16;94.20;99576.63;5130715;28;20057;-62
2023/11/06 07:49:02;;;;;;;7.72;3.42;;;11.90;99.90;;;12.04;94.35;99569.09;5130819;28;20052;-63
2023/11/06 07:51:30;;;;;;;8.57;3.45;;;11.80;99.90;;;12.05;95.25;99563.75;5112510;28;20142;-63
2023/11/06 07:53:59;;;;;;;11.60;3.55;;;11.80;99.90;;;11.98;95.38;99577.25;5130946;28;20407;-62
2023/11/06 07:56:27;;;;;;;7.47;3.35;;;11.80;99.90;;;12.04;95.82;99572.59;5130641;28;20492;-63
2023/11/06 07:58:56;;;;;;;12.30;3.97;;;11.80;99.90;;;12.07;96.34;99590.19;5130546;28;20126;-64
2023/11/06 08:01:24;;;;;;;9.27;3.88;;;11.80;99.90;;;11.89;96.31;99585.44;5130494;28;20411;-62
2023/11/06 08:03:53;;;;;;;10.25;3.72;;;11.70;99.90;;;11.75;97.86;99572.63;5112290;28;20051;-63
2023/11/06 08:06:22;;;;;;;15.60;4.53;;;11.60;99.90;;;11.69;98.51;99586.06;5130418;28;20043;-63
2023/11/06 08:08:51;;;;;;;8.00;4.13;;;11.50;99.90;;;11.62;99.26;99585.34;5130451;28;20102;-63
2023/11/06 08:11:21;;;;;;;8.05;3.90;;;11.40;99.90;;;11.56;99.67;99617.28;5112005;28;20043;-63
2023/11/06 08:13:50;;;;;;;13.80;4.22;;;11.40;99.90;;;11.69;100.00;99589.56;5130306;28;20488;-63
2023/11/06 08:16:18;;;;;;;9.77;4.25;;;11.50;99.90;;;11.57;100.00;99587.25;5112038;28;20039;-63
2023/11/06 08:18:47;;;;;;;12.23;4.15;;;11.40;99.90;;;11.72;100.00;99607.16;5130212;28;20141;-63
2023/11/06 08:21:15;;;;;;;13.50;4.53;;;11.50;99.90;;;11.68;100.00;99587.84;5130123;28;20547;-62
2023/11/06 08:23:45;;;;;;;14.82;5.18;;;11.50;99.90;;;11.62;100.00;99582.69;5111952;28;20139;-62
2023/11/06 08:26:13;;;;;;;12.75;4.95;;;11.40;99.90;;;11.60;100.00;99611.00;5130305;28;20048;-62
2023/11/06 08:28:42;;;;;;;15.60;5.00;;;11.40;99.90;;;11.55;100.00;99577.63;5129886;28;20047;-62
2023/11/06 08:31:10;;;;;;;14.82;5.40;;;11.40;99.90;;;11.73;100.00;99595.63;5129975;28;20240;-62
2023/11/06 08:33:38;;;;;;;14.75;4.75;;;11.50;99.90;;;12.11;100.00;99605.09;5129842;28;20043;-63
2023/11/06 08:36:09;;;;;;;18.75;4.70;;;11.80;99.90;;;12.33;98.91;99599.06;5129723;28;20043;-62
2023/11/06 08:38:37;;;;;;;22.40;4.97;;;12.10;99.90;;;12.57;97.30;99605.34;5129933;28;20051;-62
2023/11/06 08:41:09;;;;;;;16.05;5.07;;;12.30;99.90;;;12.47;96.18;99508.44;5126959;28;20051;-63
2023/11/06 08:43:39;;;;;;;18.02;5.20;;;12.70;99.90;;;13.31;93.88;99619.63;5116051;28;20040;-63
2023/11/06 08:46:07;;;;;;;13.75;5.28;;;13.00;99.90;;;13.33;91.65;99614.25;5097758;28;20055;-62
2023/11/06 08:48:36;;;;;;;17.23;4.88;;;13.10;99.90;;;13.30;91.11;99614.34;5115946;28;20576;-63
2023/11/06 08:51:05;;;;;;;13.82;5.07;;;13.10;99.90;;;13.47;90.40;99619.97;5115478;28;20108;-64
2023/11/06 08:53:33;;;;;;;17.45;5.15;;;13.20;99.90;;;13.43;88.79;99610.34;5116371;28;20067;-62
2023/11/06 08:56:02;;;;;;;16.75;4.50;;;13.20;99.90;;;13.58;87.79;99629.28;5115926;28;20048;-62
2023/11/06 08:58:32;;;;;;;11.13;4.43;;;13.30;99.90;;;14.00;87.96;99616.16;5115791;28;20125;-62
2023/11/06 09:01:00;;;;;;;10.52;4.35;;;13.70;99.90;;;14.12;85.37;99622.78;5115805;28;20047;-63
2023/11/06 09:03:29;;;;;;;17.67;4.50;;;13.90;99.90;;;14.11;85.29;99652.97;5115995;28;20055;-62
2023/11/06 09:05:57;;;;;;;16.08;4.82;;;13.90;99.90;;;14.17;84.53;99647.41;5116138;28;20048;-62
2023/11/06 09:08:26;;;;;;;13.23;4.13;;;14.00;99.90;;;13.98;84.69;99635.72;5115614;28;20047;-63
2023/11/06 09:10:54;;;;;;;10.32;4.30;;;13.80;99.90;;;13.73;85.26;99646.41;5115432;28;20043;-62
2023/11/06 09:13:23;;;;;;;11.85;4.13;;;13.60;99.90;;;13.68;85.72;99640.44;5097424;28;20048;-62
2023/11/06 09:15:52;;;;;;;10.82;3.92;;;13.50;99.90;;;13.68;86.13;99647.53;5115362;28;20134;-63
2023/11/06 09:18:21;;;;;;;10.60;4.00;;;13.50;99.90;;;13.57;85.94;99658.53;5115507;28;20047;-62
2023/11/06 09:20:51;;;;;;;10.60;4.07;;;13.40;99.90;;;13.45;86.76;99649.19;5115582;28;20079;-63
2023/11/06 09:23:21;;;;;;;11.88;4.05;;;13.20;99.90;;;13.23;87.62;99658.88;5115599;28;20051;-62
2023/11/06 09:25:49;;;;;;;11.35;4.18;;;13.00;99.90;;;13.34;89.22;99655.81;5115291;28;20093;-62
2023/11/06 09:28:18;;;;;;;11.77;4.03;;;13.10;99.90;;;13.24;89.13;99657.94;5115198;28;20042;-62
2023/11/06 09:30:46;;;;;;;7.03;3.90;;;13.00;99.90;;;12.28;88.91;99540.03;5114881;28;20059;-62
2023/11/06 09:33:16;;;;;;;9.60;3.55;;;12.80;99.90;;;12.97;89.21;99656.19;5115142;28;20585;-62
2023/11/06 09:35:45;;;;;;;7.80;3.78;;;12.70;99.90;;;12.82;90.08;99669.09;5115008;28;20624;-62
2023/11/06 09:38:14;;;;;;;9.32;3.95;;;12.60;99.90;;;12.73;90.52;99669.41;5114997;28;20492;-62
2023/11/06 09:40:43;;;;;;;9.07;3.90;;;12.50;99.90;;;12.66;90.78;99688.16;5096902;28;20055;-62
2023/11/06 09:43:14;;;;;;;10.88;4.10;;;12.40;99.90;;;12.46;91.40;99719.75;5115529;28;20048;-62
2023/11/06 09:45:42;;;;;;;10.45;4.05;;;12.30;99.90;;;12.46;92.18;99684.41;5096781;28;20582;-62
2023/11/06 09:48:19;;;;;;;9.25;4.38;;;12.20;99.90;;;12.36;92.62;99698.84;5115106;28;20089;-62
2023/11/06 09:50:49;;;;;;;14.95;4.95;;;12.20;99.90;;;12.43;93.18;99700.41;5114773;28;20040;-62
2023/11/06 09:53:18;;;;;;;16.33;4.63;;;12.20;99.90;;;12.37;93.67;99705.88;5114005;28;20035;-62
2023/11/06 09:55:47;;;;;;;10.43;4.40;;;12.20;99.90;;;12.26;93.79;99714.19;5114617;28;20051;-61
2023/11/06 09:58:15;;;;;;;14.75;4.68;;;12.10;99.90;;;12.28;94.59;99699.09;5114777;28;20051;-62
2023/11/06 10:00:46;;;;;;;12.43;5.07;;;12.10;99.90;;;12.46;95.14;99705.63;5114796;28;20040;-61
2023/11/06 10:03:16;;;;;;;10.07;4.28;;;12.20;99.90;;;12.52;95.08;99714.25;5114662;28;20047;-63
2023/11/06 10:05:45;;;;;;;11.82;4.38;;;12.30;99.90;;;11.85;94.66;99584.69;5114754;28;20052;-63
2023/11/06 10:08:28;;;;;;;19.92;4.47;;;12.30;99.90;;;12.45;94.58;99730.38;5114368;28;20561;-62
2023/11/06 10:11:00;;;;;;;12.05;4.72;;;12.20;99.90;;;12.47;94.31;99724.13;5114346;28;20067;-62
2023/11/06 10:13:29;;;;;;;10.75;4.28;;;12.30;99.90;;;12.33;94.17;99714.88;5114394;28;20054;-62
2023/11/06 10:16:17;;;;;;;11.00;3.80;;;12.20;99.90;;;12.47;93.26;99739.16;5114285;28;20032;-62
2023/11/06 10:18:47;;;;;;;14.77;3.97;;;12.20;99.90;;;12.41;93.29;99734.03;5096292;28;20514;-63